sensor_id;sensor_type;location;lat;lon;timestamp;P1;durP1;ratioP1;P2;durP2;ratioP2
6255;SDS011;3161;48.794;9.784;2022-09-09T00:00:46;4.63;;;1.80;;
6255;SDS011;3161;48.794;9.784;2022-09-09T00:03:17;5.00;;;1.67;;
6255;SDS011;3161;48.794;9.784;2022-09-09T00:06:03;5.63;;;2.03;;
6255;SDS011;3161;48.794;9.784;2022-09-09T00:08:38;3.30;;;1.80;;
6255;SDS011;3161;48.794;9.784;2022-09-09T00:11:23;6.13;;;1.57;;
6255;SDS011;3161;48.794;9.784;2022-09-09T00:13:52;3.80;;;1.70;;
6255;SDS011;3161;48.794;9.784;2022-09-09T00:16:21;4.70;;;1.80;;
6255;SDS011;3161;48.794;9.784;2022-09-09T00:19:15;4.23;;;1.37;;
6255;SDS011;3161;48.794;9.784;2022-09-09T00:21:39;5.30;;;1.50;;
6255;SDS011;3161;48.794;9.784;2022-09-09T00:24:11;3.53;;;1.60;;
6255;SDS011;3161;48.794;9.784;2022-09-09T00:26:41;2.47;;;1.23;;
6255;SDS011;3161;48.794;9.784;2022-09-09T00:31:46;5.10;;;1.57;;
6255;SDS011;3161;48.794;9.784;2022-09-09T00:34:16;3.73;;;1.57;;
6255;SDS011;3161;48.794;9.784;2022-09-09T00:36:48;6.90;;;1.93;;
6255;SDS011;3161;48.794;9.784;2022-09-09T00:44:55;7.13;;;1.63;;
6255;SDS011;3161;48.794;9.784;2022-09-09T00:47:48;8.03;;;1.80;;
6255;SDS011;3161;48.794;9.784;2022-09-09T00:50:12;3.43;;;1.70;;
6255;SDS011;3161;48.794;9.784;2022-09-09T00:55:34;4.33;;;1.30;;
6255;SDS011;3161;48.794;9.784;2022-09-09T00:57:58;7.63;;;1.60;;
6255;SDS011;3161;48.794;9.784;2022-09-09T01:00:30;3.37;;;1.20;;
6255;SDS011;3161;48.794;9.784;2022-09-09T01:11:28;4.30;;;1.87;;
6255;SDS011;3161;48.794;9.784;2022-09-09T01:14:02;4.57;;;1.60;;
6255;SDS011;3161;48.794;9.784;2022-09-09T01:16:27;4.13;;;1.47;;
6255;SDS011;3161;48.794;9.784;2022-09-09T01:18:56;2.63;;;1.20;;
6255;SDS011;3161;48.794;9.784;2022-09-09T01:21:43;8.10;;;1.67;;
6255;SDS011;3161;48.794;9.784;2022-09-09T01:24:22;6.07;;;1.83;;
6255;SDS011;3161;48.794;9.784;2022-09-09T01:26:57;3.73;;;1.57;;
6255;SDS011;3161;48.794;9.784;2022-09-09T01:29:27;5.63;;;1.47;;
6255;SDS011;3161;48.794;9.784;2022-09-09T01:32:01;3.40;;;1.50;;
6255;SDS011;3161;48.794;9.784;2022-09-09T01:34:36;7.33;;;1.60;;
6255;SDS011;3161;48.794;9.784;2022-09-09T01:37:07;4.00;;;1.87;;
6255;SDS011;3161;48.794;9.784;2022-09-09T01:39:38;2.93;;;1.53;;
6255;SDS011;3161;48.794;9.784;2022-09-09T01:42:08;3.97;;;1.43;;
6255;SDS011;3161;48.794;9.784;2022-09-09T01:44:37;5.83;;;1.50;;
6255;SDS011;3161;48.794;9.784;2022-09-09T01:47:05;2.40;;;1.33;;
6255;SDS011;3161;48.794;9.784;2022-09-09T01:49:33;3.20;;;1.73;;
6255;SDS011;3161;48.794;9.784;2022-09-09T01:52:01;5.23;;;1.67;;
6255;SDS011;3161;48.794;9.784;2022-09-09T01:54:29;5.97;;;2.23;;
6255;SDS011;3161;48.794;9.784;2022-09-09T01:57:06;7.30;;;1.67;;
6255;SDS011;3161;48.794;9.784;2022-09-09T02:02:19;7.10;;;1.27;;
6255;SDS011;3161;48.794;9.784;2022-09-09T02:04:57;5.57;;;1.73;;
6255;SDS011;3161;48.794;9.784;2022-09-09T02:10:12;4.57;;;1.30;;
6255;SDS011;3161;48.794;9.784;2022-09-09T02:12:49;2.03;;;1.33;;
6255;SDS011;3161;48.794;9.784;2022-09-09T02:18:17;2.57;;;1.40;;
6255;SDS011;3161;48.794;9.784;2022-09-09T02:20:48;2.43;;;1.20;;
6255;SDS011;3161;48.794;9.784;2022-09-09T02:23:17;4.07;;;1.47;;
6255;SDS011;3161;48.794;9.784;2022-09-09T02:25:45;4.17;;;1.83;;
6255;SDS011;3161;48.794;9.784;2022-09-09T02:28:16;3.07;;;1.40;;
6255;SDS011;3161;48.794;9.784;2022-09-09T02:30:47;3.60;;;1.23;;
6255;SDS011;3161;48.794;9.784;2022-09-09T02:33:28;3.10;;;1.50;;
6255;SDS011;3161;48.794;9.784;2022-09-09T02:35:54;6.57;;;1.57;;
6255;SDS011;3161;48.794;9.784;2022-09-09T02:38:25;3.87;;;1.57;;
6255;SDS011;3161;48.794;9.784;2022-09-09T02:40:54;1.77;;;1.50;;
6255;SDS011;3161;48.794;9.784;2022-09-09T02:43:22;7.27;;;2.43;;
6255;SDS011;3161;48.794;9.784;2022-09-09T02:45:57;2.93;;;1.40;;
6255;SDS011;3161;48.794;9.784;2022-09-09T02:48:31;3.33;;;1.20;;
6255;SDS011;3161;48.794;9.784;2022-09-09T02:51:03;2.37;;;1.53;;
6255;SDS011;3161;48.794;9.784;2022-09-09T02:56:14;2.80;;;1.60;;
6255;SDS011;3161;48.794;9.784;2022-09-09T02:58:43;4.40;;;1.57;;
6255;SDS011;3161;48.794;9.784;2022-09-09T03:01:12;7.30;;;1.37;;
6255;SDS011;3161;48.794;9.784;2022-09-09T03:03:39;3.70;;;1.67;;
6255;SDS011;3161;48.794;9.784;2022-09-09T03:06:08;2.47;;;1.40;;
6255;SDS011;3161;48.794;9.784;2022-09-09T03:08:37;6.53;;;1.70;;
6255;SDS011;3161;48.794;9.784;2022-09-09T03:11:05;2.40;;;1.30;;
6255;SDS011;3161;48.794;9.784;2022-09-09T03:13:32;4.20;;;1.60;;
6255;SDS011;3161;48.794;9.784;2022-09-09T03:16:00;6.03;;;1.93;;
6255;SDS011;3161;48.794;9.784;2022-09-09T03:18:27;1.93;;;1.40;;
6255;SDS011;3161;48.794;9.784;2022-09-09T03:20:55;5.00;;;1.47;;
6255;SDS011;3161;48.794;9.784;2022-09-09T03:23:23;3.60;;;1.60;;
6255;SDS011;3161;48.794;9.784;2022-09-09T03:25:50;7.50;;;1.27;;
6255;SDS011;3161;48.794;9.784;2022-09-09T03:28:20;6.27;;;1.50;;
6255;SDS011;3161;48.794;9.784;2022-09-09T03:30:48;2.57;;;1.67;;
6255;SDS011;3161;48.794;9.784;2022-09-09T03:33:16;6.03;;;1.60;;
6255;SDS011;3161;48.794;9.784;2022-09-09T03:35:47;6.13;;;1.70;;
6255;SDS011;3161;48.794;9.784;2022-09-09T03:38:14;2.73;;;1.80;;
6255;SDS011;3161;48.794;9.784;2022-09-09T03:40:52;5.40;;;1.63;;
6255;SDS011;3161;48.794;9.784;2022-09-09T03:43:21;5.13;;;1.87;;
6255;SDS011;3161;48.794;9.784;2022-09-09T03:45:50;4.93;;;1.70;;
6255;SDS011;3161;48.794;9.784;2022-09-09T03:48:18;2.70;;;1.60;;
6255;SDS011;3161;48.794;9.784;2022-09-09T03:50:46;3.13;;;1.40;;
6255;SDS011;3161;48.794;9.784;2022-09-09T03:53:16;3.80;;;1.47;;
6255;SDS011;3161;48.794;9.784;2022-09-09T03:55:48;3.77;;;1.40;;
6255;SDS011;3161;48.794;9.784;2022-09-09T03:58:19;10.03;;;1.70;;
6255;SDS011;3161;48.794;9.784;2022-09-09T04:00:56;3.90;;;1.60;;
6255;SDS011;3161;48.794;9.784;2022-09-09T04:03:25;2.10;;;1.60;;
6255;SDS011;3161;48.794;9.784;2022-09-09T04:05:54;2.27;;;1.50;;
6255;SDS011;3161;48.794;9.784;2022-09-09T04:08:23;3.77;;;1.80;;
6255;SDS011;3161;48.794;9.784;2022-09-09T04:10:52;5.60;;;1.50;;
6255;SDS011;3161;48.794;9.784;2022-09-09T04:13:24;3.47;;;1.67;;
6255;SDS011;3161;48.794;9.784;2022-09-09T04:15:53;2.00;;;1.33;;
6255;SDS011;3161;48.794;9.784;2022-09-09T04:18:22;6.67;;;1.87;;
6255;SDS011;3161;48.794;9.784;2022-09-09T04:20:52;2.50;;;1.67;;
6255;SDS011;3161;48.794;9.784;2022-09-09T04:23:22;10.77;;;1.40;;
6255;SDS011;3161;48.794;9.784;2022-09-09T04:25:51;5.10;;;1.43;;
6255;SDS011;3161;48.794;9.784;2022-09-09T04:28:22;3.53;;;1.80;;
6255;SDS011;3161;48.794;9.784;2022-09-09T04:30:51;3.00;;;1.43;;
6255;SDS011;3161;48.794;9.784;2022-09-09T04:33:19;3.10;;;1.80;;
6255;SDS011;3161;48.794;9.784;2022-09-09T04:35:48;6.50;;;1.90;;
6255;SDS011;3161;48.794;9.784;2022-09-09T04:38:17;8.07;;;1.90;;
6255;SDS011;3161;48.794;9.784;2022-09-09T04:40:47;8.23;;;2.10;;
6255;SDS011;3161;48.794;9.784;2022-09-09T04:43:17;2.30;;;1.50;;
6255;SDS011;3161;48.794;9.784;2022-09-09T04:45:46;3.87;;;1.70;;
6255;SDS011;3161;48.794;9.784;2022-09-09T04:48:15;4.03;;;1.97;;
6255;SDS011;3161;48.794;9.784;2022-09-09T04:50:42;2.97;;;1.70;;
6255;SDS011;3161;48.794;9.784;2022-09-09T04:53:10;3.17;;;1.87;;
6255;SDS011;3161;48.794;9.784;2022-09-09T04:55:38;4.83;;;2.10;;
6255;SDS011;3161;48.794;9.784;2022-09-09T04:58:06;5.83;;;2.50;;
6255;SDS011;3161;48.794;9.784;2022-09-09T05:00:35;4.33;;;2.00;;
6255;SDS011;3161;48.794;9.784;2022-09-09T05:03:04;7.20;;;2.20;;
6255;SDS011;3161;48.794;9.784;2022-09-09T05:05:34;2.37;;;1.63;;
6255;SDS011;3161;48.794;9.784;2022-09-09T05:08:03;5.47;;;2.10;;
6255;SDS011;3161;48.794;9.784;2022-09-09T05:10:32;3.43;;;1.60;;
6255;SDS011;3161;48.794;9.784;2022-09-09T05:13:01;3.23;;;1.87;;
6255;SDS011;3161;48.794;9.784;2022-09-09T05:15:30;3.87;;;2.20;;
6255;SDS011;3161;48.794;9.784;2022-09-09T05:17:58;4.93;;;1.80;;
6255;SDS011;3161;48.794;9.784;2022-09-09T05:20:26;6.80;;;1.97;;
6255;SDS011;3161;48.794;9.784;2022-09-09T05:22:55;6.37;;;2.70;;
6255;SDS011;3161;48.794;9.784;2022-09-09T05:25:23;10.03;;;3.33;;
6255;SDS011;3161;48.794;9.784;2022-09-09T05:27:53;6.73;;;2.87;;
6255;SDS011;3161;48.794;9.784;2022-09-09T05:30:21;7.47;;;3.07;;
6255;SDS011;3161;48.794;9.784;2022-09-09T05:32:51;6.77;;;2.40;;
6255;SDS011;3161;48.794;9.784;2022-09-09T05:35:18;9.50;;;2.20;;
6255;SDS011;3161;48.794;9.784;2022-09-09T05:37:46;4.43;;;2.03;;
6255;SDS011;3161;48.794;9.784;2022-09-09T05:40:14;5.00;;;2.37;;
6255;SDS011;3161;48.794;9.784;2022-09-09T05:42:41;6.63;;;2.63;;
6255;SDS011;3161;48.794;9.784;2022-09-09T05:45:09;5.10;;;2.50;;
6255;SDS011;3161;48.794;9.784;2022-09-09T05:47:37;6.97;;;3.33;;
6255;SDS011;3161;48.794;9.784;2022-09-09T05:50:05;5.00;;;3.00;;
6255;SDS011;3161;48.794;9.784;2022-09-09T05:52:33;8.77;;;3.10;;
6255;SDS011;3161;48.794;9.784;2022-09-09T05:55:00;15.53;;;3.23;;
6255;SDS011;3161;48.794;9.784;2022-09-09T05:57:30;9.27;;;2.70;;
6255;SDS011;3161;48.794;9.784;2022-09-09T05:59:57;3.20;;;1.93;;
6255;SDS011;3161;48.794;9.784;2022-09-09T06:02:26;5.37;;;2.23;;
6255;SDS011;3161;48.794;9.784;2022-09-09T06:04:53;8.50;;;2.53;;
6255;SDS011;3161;48.794;9.784;2022-09-09T06:07:21;7.83;;;2.33;;
6255;SDS011;3161;48.794;9.784;2022-09-09T06:09:49;5.47;;;2.00;;
6255;SDS011;3161;48.794;9.784;2022-09-09T06:12:17;9.63;;;1.93;;
6255;SDS011;3161;48.794;9.784;2022-09-09T06:14:44;7.87;;;2.40;;
6255;SDS011;3161;48.794;9.784;2022-09-09T06:17:13;4.37;;;1.60;;
6255;SDS011;3161;48.794;9.784;2022-09-09T06:19:40;5.73;;;1.83;;
6255;SDS011;3161;48.794;9.784;2022-09-09T06:22:08;7.57;;;2.50;;
6255;SDS011;3161;48.794;9.784;2022-09-09T06:24:37;6.83;;;2.73;;
6255;SDS011;3161;48.794;9.784;2022-09-09T06:27:05;5.83;;;2.20;;
6255;SDS011;3161;48.794;9.784;2022-09-09T06:29:33;7.87;;;2.03;;
6255;SDS011;3161;48.794;9.784;2022-09-09T06:32:00;6.83;;;1.77;;
6255;SDS011;3161;48.794;9.784;2022-09-09T06:34:28;4.43;;;1.60;;
6255;SDS011;3161;48.794;9.784;2022-09-09T06:36:56;9.23;;;2.07;;
6255;SDS011;3161;48.794;9.784;2022-09-09T06:39:24;6.03;;;1.90;;
6255;SDS011;3161;48.794;9.784;2022-09-09T06:41:51;9.87;;;2.00;;
6255;SDS011;3161;48.794;9.784;2022-09-09T06:44:19;6.87;;;1.93;;
6255;SDS011;3161;48.794;9.784;2022-09-09T06:46:47;3.67;;;1.63;;
6255;SDS011;3161;48.794;9.784;2022-09-09T06:49:15;8.47;;;2.50;;
6255;SDS011;3161;48.794;9.784;2022-09-09T06:51:43;8.43;;;2.33;;
6255;SDS011;3161;48.794;9.784;2022-09-09T06:54:11;5.63;;;2.23;;
6255;SDS011;3161;48.794;9.784;2022-09-09T06:56:40;5.73;;;1.80;;
6255;SDS011;3161;48.794;9.784;2022-09-09T06:59:09;6.13;;;1.97;;
6255;SDS011;3161;48.794;9.784;2022-09-09T07:01:38;5.40;;;1.40;;
6255;SDS011;3161;48.794;9.784;2022-09-09T07:04:07;5.43;;;1.90;;
6255;SDS011;3161;48.794;9.784;2022-09-09T07:06:41;7.43;;;1.87;;
6255;SDS011;3161;48.794;9.784;2022-09-09T07:09:10;3.43;;;1.50;;
6255;SDS011;3161;48.794;9.784;2022-09-09T07:11:40;7.57;;;2.47;;
6255;SDS011;3161;48.794;9.784;2022-09-09T07:14:10;3.43;;;2.00;;
6255;SDS011;3161;48.794;9.784;2022-09-09T07:16:45;9.70;;;2.23;;
6255;SDS011;3161;48.794;9.784;2022-09-09T07:19:10;10.27;;;2.43;;
6255;SDS011;3161;48.794;9.784;2022-09-09T07:21:40;5.40;;;1.90;;
6255;SDS011;3161;48.794;9.784;2022-09-09T07:24:08;4.40;;;1.80;;
6255;SDS011;3161;48.794;9.784;2022-09-09T07:26:36;5.50;;;1.90;;
6255;SDS011;3161;48.794;9.784;2022-09-09T07:29:05;5.70;;;2.23;;
6255;SDS011;3161;48.794;9.784;2022-09-09T07:31:35;4.50;;;1.60;;
6255;SDS011;3161;48.794;9.784;2022-09-09T07:34:05;4.83;;;1.70;;
6255;SDS011;3161;48.794;9.784;2022-09-09T07:36:34;10.60;;;1.77;;
6255;SDS011;3161;48.794;9.784;2022-09-09T07:39:05;3.47;;;1.40;;
6255;SDS011;3161;48.794;9.784;2022-09-09T07:41:36;7.60;;;1.50;;
6255;SDS011;3161;48.794;9.784;2022-09-09T07:44:12;4.70;;;1.83;;
6255;SDS011;3161;48.794;9.784;2022-09-09T07:46:36;4.20;;;1.70;;
6255;SDS011;3161;48.794;9.784;2022-09-09T07:49:05;3.30;;;1.63;;
6255;SDS011;3161;48.794;9.784;2022-09-09T07:51:34;4.53;;;2.00;;
6255;SDS011;3161;48.794;9.784;2022-09-09T07:54:05;4.33;;;1.40;;
6255;SDS011;3161;48.794;9.784;2022-09-09T07:56:34;2.77;;;1.30;;
6255;SDS011;3161;48.794;9.784;2022-09-09T07:59:03;3.43;;;1.33;;
6255;SDS011;3161;48.794;9.784;2022-09-09T08:01:33;7.47;;;1.80;;
6255;SDS011;3161;48.794;9.784;2022-09-09T08:04:07;3.93;;;1.43;;
6255;SDS011;3161;48.794;9.784;2022-09-09T08:06:39;3.83;;;1.70;;
6255;SDS011;3161;48.794;9.784;2022-09-09T08:09:08;4.73;;;2.00;;
6255;SDS011;3161;48.794;9.784;2022-09-09T08:11:36;2.23;;;1.40;;
6255;SDS011;3161;48.794;9.784;2022-09-09T08:14:05;4.03;;;1.37;;
6255;SDS011;3161;48.794;9.784;2022-09-09T08:16:35;4.70;;;1.20;;
6255;SDS011;3161;48.794;9.784;2022-09-09T08:19:05;6.87;;;1.97;;
6255;SDS011;3161;48.794;9.784;2022-09-09T08:21:33;1.93;;;1.10;;
6255;SDS011;3161;48.794;9.784;2022-09-09T08:24:03;4.33;;;1.00;;
6255;SDS011;3161;48.794;9.784;2022-09-09T08:26:32;5.33;;;0.90;;
6255;SDS011;3161;48.794;9.784;2022-09-09T08:29:04;2.33;;;1.00;;
6255;SDS011;3161;48.794;9.784;2022-09-09T08:31:34;4.80;;;1.10;;
6255;SDS011;3161;48.794;9.784;2022-09-09T08:34:03;2.17;;;0.87;;
6255;SDS011;3161;48.794;9.784;2022-09-09T08:36:34;3.23;;;0.73;;
6255;SDS011;3161;48.794;9.784;2022-09-09T08:39:06;3.27;;;0.80;;
6255;SDS011;3161;48.794;9.784;2022-09-09T08:44:29;2.20;;;0.70;;
6255;SDS011;3161;48.794;9.784;2022-09-09T08:52:49;4.78;;;1.10;;
6255;SDS011;3161;48.794;9.784;2022-09-09T08:57:53;5.65;;;1.22;;
6255;SDS011;3161;48.794;9.784;2022-09-09T09:00:25;3.33;;;0.88;;
6255;SDS011;3161;48.794;9.784;2022-09-09T09:03:03;3.40;;;0.98;;
6255;SDS011;3161;48.794;9.784;2022-09-09T09:08:31;4.57;;;0.80;;
6255;SDS011;3161;48.794;9.784;2022-09-09T09:11:03;3.03;;;0.90;;
6255;SDS011;3161;48.794;9.784;2022-09-09T09:13:41;2.87;;;0.90;;
6255;SDS011;3161;48.794;9.784;2022-09-09T09:16:36;4.93;;;1.10;;
6255;SDS011;3161;48.794;9.784;2022-09-09T09:19:04;3.20;;;1.00;;
6255;SDS011;3161;48.794;9.784;2022-09-09T09:21:35;5.73;;;1.20;;
6255;SDS011;3161;48.794;9.784;2022-09-09T09:27:23;4.83;;;0.90;;
6255;SDS011;3161;48.794;9.784;2022-09-09T09:30:05;5.93;;;1.23;;
6255;SDS011;3161;48.794;9.784;2022-09-09T09:32:34;2.33;;;0.60;;
6255;SDS011;3161;48.794;9.784;2022-09-09T09:35:06;3.80;;;1.23;;
6255;SDS011;3161;48.794;9.784;2022-09-09T09:37:34;5.10;;;0.93;;
6255;SDS011;3161;48.794;9.784;2022-09-09T09:40:09;2.07;;;0.90;;
6255;SDS011;3161;48.794;9.784;2022-09-09T09:42:38;2.10;;;1.17;;
6255;SDS011;3161;48.794;9.784;2022-09-09T09:45:32;3.50;;;0.97;;
6255;SDS011;3161;48.794;9.784;2022-09-09T09:48:04;3.00;;;1.00;;
6255;SDS011;3161;48.794;9.784;2022-09-09T09:50:33;5.83;;;0.80;;
6255;SDS011;3161;48.794;9.784;2022-09-09T09:53:04;1.37;;;0.80;;
6255;SDS011;3161;48.794;9.784;2022-09-09T09:55:33;6.33;;;1.03;;
6255;SDS011;3161;48.794;9.784;2022-09-09T09:58:03;3.10;;;0.87;;
6255;SDS011;3161;48.794;9.784;2022-09-09T10:00:32;2.90;;;1.30;;
6255;SDS011;3161;48.794;9.784;2022-09-09T10:03:12;7.17;;;1.20;;
6255;SDS011;3161;48.794;9.784;2022-09-09T10:05:35;3.97;;;1.00;;
6255;SDS011;3161;48.794;9.784;2022-09-09T10:08:04;7.97;;;1.30;;
6255;SDS011;3161;48.794;9.784;2022-09-09T10:10:42;6.33;;;0.80;;
6255;SDS011;3161;48.794;9.784;2022-09-09T10:13:40;2.80;;;0.90;;
6255;SDS011;3161;48.794;9.784;2022-09-09T10:19:15;4.63;;;1.07;;
6255;SDS011;3161;48.794;9.784;2022-09-09T10:22:02;2.90;;;0.73;;
6255;SDS011;3161;48.794;9.784;2022-09-09T10:27:12;4.33;;;0.90;;
6255;SDS011;3161;48.794;9.784;2022-09-09T10:32:46;1.62;;;0.60;;
6255;SDS011;3161;48.794;9.784;2022-09-09T10:40:43;2.83;;;0.80;;
6255;SDS011;3161;48.794;9.784;2022-09-09T10:43:28;2.73;;;0.70;;
6255;SDS011;3161;48.794;9.784;2022-09-09T10:51:28;1.45;;;0.80;;
6255;SDS011;3161;48.794;9.784;2022-09-09T10:56:44;4.53;;;1.00;;
6255;SDS011;3161;48.794;9.784;2022-09-09T10:59:29;10.15;;;1.22;;
6255;SDS011;3161;48.794;9.784;2022-09-09T11:02:00;1.72;;;0.78;;
6255;SDS011;3161;48.794;9.784;2022-09-09T11:04:37;6.12;;;0.70;;
6255;SDS011;3161;48.794;9.784;2022-09-09T11:07:09;6.70;;;0.90;;
6255;SDS011;3161;48.794;9.784;2022-09-09T11:09:41;3.83;;;0.85;;
6255;SDS011;3161;48.794;9.784;2022-09-09T11:12:11;3.05;;;0.93;;
6255;SDS011;3161;48.794;9.784;2022-09-09T11:14:43;6.33;;;0.90;;
6255;SDS011;3161;48.794;9.784;2022-09-09T11:17:26;3.10;;;0.70;;
6255;SDS011;3161;48.794;9.784;2022-09-09T11:20:02;4.58;;;1.10;;
6255;SDS011;3161;48.794;9.784;2022-09-09T11:22:33;5.75;;;0.75;;
6255;SDS011;3161;48.794;9.784;2022-09-09T11:25:21;1.65;;;0.72;;
6255;SDS011;3161;48.794;9.784;2022-09-09T11:39:06;2.22;;;0.65;;
6255;SDS011;3161;48.794;9.784;2022-09-09T11:41:35;1.40;;;0.50;;
6255;SDS011;3161;48.794;9.784;2022-09-09T11:44:11;2.37;;;0.70;;
6255;SDS011;3161;48.794;9.784;2022-09-09T11:46:42;3.20;;;0.80;;
6255;SDS011;3161;48.794;9.784;2022-09-09T11:49:28;3.15;;;0.90;;
6255;SDS011;3161;48.794;9.784;2022-09-09T11:51:57;4.42;;;0.60;;
6255;SDS011;3161;48.794;9.784;2022-09-09T11:54:31;3.37;;;0.50;;
6255;SDS011;3161;48.794;9.784;2022-09-09T11:57:02;1.65;;;0.75;;
6255;SDS011;3161;48.794;9.784;2022-09-09T11:59:31;2.50;;;0.70;;
6255;SDS011;3161;48.794;9.784;2022-09-09T12:04:33;1.85;;;0.60;;
6255;SDS011;3161;48.794;9.784;2022-09-09T12:09:49;1.35;;;0.55;;
6255;SDS011;3161;48.794;9.784;2022-09-09T12:12:21;1.37;;;0.50;;
6255;SDS011;3161;48.794;9.784;2022-09-09T12:15:02;1.85;;;0.78;;
6255;SDS011;3161;48.794;9.784;2022-09-09T12:17:32;3.15;;;0.70;;
6255;SDS011;3161;48.794;9.784;2022-09-09T12:20:15;4.47;;;0.72;;
6255;SDS011;3161;48.794;9.784;2022-09-09T12:28:26;1.20;;;0.40;;
6255;SDS011;3161;48.794;9.784;2022-09-09T12:33:35;2.33;;;0.60;;
6255;SDS011;3161;48.794;9.784;2022-09-09T12:36:06;4.17;;;0.62;;
6255;SDS011;3161;48.794;9.784;2022-09-09T12:38:51;4.77;;;0.83;;
6255;SDS011;3161;48.794;9.784;2022-09-09T12:41:21;3.50;;;0.78;;
6255;SDS011;3161;48.794;9.784;2022-09-09T12:43:50;3.83;;;0.90;;
6255;SDS011;3161;48.794;9.784;2022-09-09T12:46:27;2.53;;;0.63;;
6255;SDS011;3161;48.794;9.784;2022-09-09T12:48:52;5.27;;;0.77;;
6255;SDS011;3161;48.794;9.784;2022-09-09T12:51:27;4.07;;;1.07;;
6255;SDS011;3161;48.794;9.784;2022-09-09T12:53:58;2.20;;;0.70;;
6255;SDS011;3161;48.794;9.784;2022-09-09T12:56:27;4.15;;;0.78;;
6255;SDS011;3161;48.794;9.784;2022-09-09T12:58:57;4.13;;;0.90;;
6255;SDS011;3161;48.794;9.784;2022-09-09T13:01:27;4.63;;;1.20;;
6255;SDS011;3161;48.794;9.784;2022-09-09T13:04:02;5.00;;;1.40;;
6255;SDS011;3161;48.794;9.784;2022-09-09T13:06:30;4.70;;;0.63;;
6255;SDS011;3161;48.794;9.784;2022-09-09T13:09:00;2.25;;;0.78;;
6255;SDS011;3161;48.794;9.784;2022-09-09T13:11:30;2.93;;;0.63;;
6255;SDS011;3161;48.794;9.784;2022-09-09T13:14:16;3.85;;;0.70;;
6255;SDS011;3161;48.794;9.784;2022-09-09T13:17:00;2.80;;;0.70;;
6255;SDS011;3161;48.794;9.784;2022-09-09T13:19:25;2.33;;;0.88;;
6255;SDS011;3161;48.794;9.784;2022-09-09T13:21:54;2.40;;;0.40;;
6255;SDS011;3161;48.794;9.784;2022-09-09T13:24:30;2.12;;;0.72;;
6255;SDS011;3161;48.794;9.784;2022-09-09T13:27:00;1.35;;;0.60;;
6255;SDS011;3161;48.794;9.784;2022-09-09T13:29:30;1.77;;;0.45;;
6255;SDS011;3161;48.794;9.784;2022-09-09T13:32:05;2.10;;;0.40;;
6255;SDS011;3161;48.794;9.784;2022-09-09T13:34:56;2.85;;;0.72;;
6255;SDS011;3161;48.794;9.784;2022-09-09T13:37:36;2.52;;;0.90;;
6255;SDS011;3161;48.794;9.784;2022-09-09T13:40:17;3.22;;;1.00;;
6255;SDS011;3161;48.794;9.784;2022-09-09T13:42:40;2.45;;;0.55;;
6255;SDS011;3161;48.794;9.784;2022-09-09T13:45:20;3.33;;;0.50;;
6255;SDS011;3161;48.794;9.784;2022-09-09T13:47:48;1.50;;;0.50;;
6255;SDS011;3161;48.794;9.784;2022-09-09T13:50:19;3.35;;;0.57;;
6255;SDS011;3161;48.794;9.784;2022-09-09T13:52:55;0.93;;;0.60;;
6255;SDS011;3161;48.794;9.784;2022-09-09T13:55:25;2.00;;;0.40;;
6255;SDS011;3161;48.794;9.784;2022-09-09T13:57:59;2.08;;;0.47;;
6255;SDS011;3161;48.794;9.784;2022-09-09T14:00:26;0.55;;;0.37;;
6255;SDS011;3161;48.794;9.784;2022-09-09T14:02:55;2.10;;;0.65;;
6255;SDS011;3161;48.794;9.784;2022-09-09T14:05:22;5.00;;;0.75;;
6255;SDS011;3161;48.794;9.784;2022-09-09T14:07:50;1.85;;;0.55;;
6255;SDS011;3161;48.794;9.784;2022-09-09T14:10:18;1.65;;;0.60;;
6255;SDS011;3161;48.794;9.784;2022-09-09T14:12:48;2.05;;;0.53;;
6255;SDS011;3161;48.794;9.784;2022-09-09T14:15:15;2.70;;;0.55;;
6255;SDS011;3161;48.794;9.784;2022-09-09T14:17:43;2.12;;;0.70;;
6255;SDS011;3161;48.794;9.784;2022-09-09T14:20:11;4.35;;;0.65;;
6255;SDS011;3161;48.794;9.784;2022-09-09T14:22:40;3.10;;;0.62;;
6255;SDS011;3161;48.794;9.784;2022-09-09T14:25:09;0.88;;;0.60;;
6255;SDS011;3161;48.794;9.784;2022-09-09T14:27:38;2.77;;;0.57;;
6255;SDS011;3161;48.794;9.784;2022-09-09T14:30:07;5.97;;;0.82;;
6255;SDS011;3161;48.794;9.784;2022-09-09T14:32:35;3.30;;;0.60;;
6255;SDS011;3161;48.794;9.784;2022-09-09T14:35:03;2.67;;;0.45;;
6255;SDS011;3161;48.794;9.784;2022-09-09T14:37:31;0.80;;;0.68;;
6255;SDS011;3161;48.794;9.784;2022-09-09T14:40:00;1.62;;;0.60;;
6255;SDS011;3161;48.794;9.784;2022-09-09T14:42:28;4.08;;;1.05;;
6255;SDS011;3161;48.794;9.784;2022-09-09T14:44:56;2.47;;;0.70;;
6255;SDS011;3161;48.794;9.784;2022-09-09T14:47:23;0.60;;;0.50;;
6255;SDS011;3161;48.794;9.784;2022-09-09T14:49:51;2.05;;;0.80;;
6255;SDS011;3161;48.794;9.784;2022-09-09T14:52:19;8.50;;;1.12;;
6255;SDS011;3161;48.794;9.784;2022-09-09T14:54:47;6.37;;;0.60;;
6255;SDS011;3161;48.794;9.784;2022-09-09T14:57:15;1.00;;;0.65;;
6255;SDS011;3161;48.794;9.784;2022-09-09T14:59:42;2.20;;;0.60;;
6255;SDS011;3161;48.794;9.784;2022-09-09T15:02:10;1.25;;;0.50;;
6255;SDS011;3161;48.794;9.784;2022-09-09T15:04:39;2.25;;;0.50;;
6255;SDS011;3161;48.794;9.784;2022-09-09T15:07:07;2.80;;;0.60;;
6255;SDS011;3161;48.794;9.784;2022-09-09T15:09:34;1.95;;;0.70;;
6255;SDS011;3161;48.794;9.784;2022-09-09T15:12:03;2.87;;;0.85;;
6255;SDS011;3161;48.794;9.784;2022-09-09T15:14:31;1.65;;;0.47;;
6255;SDS011;3161;48.794;9.784;2022-09-09T15:16:58;2.08;;;0.40;;
6255;SDS011;3161;48.794;9.784;2022-09-09T15:19:26;2.85;;;0.40;;
6255;SDS011;3161;48.794;9.784;2022-09-09T15:21:54;2.35;;;0.50;;
6255;SDS011;3161;48.794;9.784;2022-09-09T15:24:22;0.90;;;0.55;;
6255;SDS011;3161;48.794;9.784;2022-09-09T15:26:51;1.70;;;0.50;;
6255;SDS011;3161;48.794;9.784;2022-09-09T15:29:19;2.35;;;0.35;;
6255;SDS011;3161;48.794;9.784;2022-09-09T15:31:47;0.82;;;0.40;;
6255;SDS011;3161;48.794;9.784;2022-09-09T15:34:14;1.22;;;0.60;;
6255;SDS011;3161;48.794;9.784;2022-09-09T15:36:42;2.20;;;0.40;;
6255;SDS011;3161;48.794;9.784;2022-09-09T15:39:13;5.30;;;0.50;;
6255;SDS011;3161;48.794;9.784;2022-09-09T15:41:48;1.85;;;0.40;;
6255;SDS011;3161;48.794;9.784;2022-09-09T15:44:13;1.05;;;0.50;;
6255;SDS011;3161;48.794;9.784;2022-09-09T15:46:45;1.42;;;0.55;;
6255;SDS011;3161;48.794;9.784;2022-09-09T15:49:18;2.42;;;0.85;;
6255;SDS011;3161;48.794;9.784;2022-09-09T15:51:58;3.43;;;0.50;;
6255;SDS011;3161;48.794;9.784;2022-09-09T15:54:24;1.42;;;0.50;;
6255;SDS011;3161;48.794;9.784;2022-09-09T15:56:53;4.83;;;0.50;;
6255;SDS011;3161;48.794;9.784;2022-09-09T15:59:23;1.33;;;0.50;;
6255;SDS011;3161;48.794;9.784;2022-09-09T16:01:52;1.90;;;0.40;;
6255;SDS011;3161;48.794;9.784;2022-09-09T16:04:21;3.85;;;0.60;;
6255;SDS011;3161;48.794;9.784;2022-09-09T16:06:50;1.27;;;0.33;;
6255;SDS011;3161;48.794;9.784;2022-09-09T16:09:19;2.85;;;0.60;;
6255;SDS011;3161;48.794;9.784;2022-09-09T16:11:48;1.73;;;0.47;;
6255;SDS011;3161;48.794;9.784;2022-09-09T16:14:15;6.55;;;0.68;;
6255;SDS011;3161;48.794;9.784;2022-09-09T16:16:43;3.33;;;0.87;;
6255;SDS011;3161;48.794;9.784;2022-09-09T16:19:11;1.62;;;0.45;;
6255;SDS011;3161;48.794;9.784;2022-09-09T16:21:43;4.60;;;0.57;;
6255;SDS011;3161;48.794;9.784;2022-09-09T16:24:13;2.92;;;0.78;;
6255;SDS011;3161;48.794;9.784;2022-09-09T16:26:42;0.57;;;0.50;;
6255;SDS011;3161;48.794;9.784;2022-09-09T16:29:12;1.60;;;0.60;;
6255;SDS011;3161;48.794;9.784;2022-09-09T16:31:41;3.90;;;0.70;;
6255;SDS011;3161;48.794;9.784;2022-09-09T16:34:09;2.90;;;0.67;;
6255;SDS011;3161;48.794;9.784;2022-09-09T16:36:38;3.40;;;0.63;;
6255;SDS011;3161;48.794;9.784;2022-09-09T16:39:13;2.13;;;0.80;;
6255;SDS011;3161;48.794;9.784;2022-09-09T16:41:37;5.10;;;0.90;;
6255;SDS011;3161;48.794;9.784;2022-09-09T16:44:08;2.40;;;0.70;;
6255;SDS011;3161;48.794;9.784;2022-09-09T16:46:37;2.83;;;0.50;;
6255;SDS011;3161;48.794;9.784;2022-09-09T16:49:08;1.20;;;0.40;;
6255;SDS011;3161;48.794;9.784;2022-09-09T16:51:38;3.23;;;0.67;;
6255;SDS011;3161;48.794;9.784;2022-09-09T16:54:10;1.87;;;0.60;;
6255;SDS011;3161;48.794;9.784;2022-09-09T16:56:40;3.23;;;0.53;;
6255;SDS011;3161;48.794;9.784;2022-09-09T16:59:11;1.63;;;0.60;;
6255;SDS011;3161;48.794;9.784;2022-09-09T17:01:40;2.63;;;0.77;;
6255;SDS011;3161;48.794;9.784;2022-09-09T17:04:10;8.27;;;0.80;;
6255;SDS011;3161;48.794;9.784;2022-09-09T17:06:41;7.97;;;1.03;;
6255;SDS011;3161;48.794;9.784;2022-09-09T17:09:10;1.13;;;0.57;;
6255;SDS011;3161;48.794;9.784;2022-09-09T17:11:39;2.97;;;0.90;;